sensor_id;sensor_type;location;lat;lon;timestamp;temperature;humidity
85614;DHT22;76041;50.924;3.932;2024-03-23T00:55:35;10.40;80.00
85614;DHT22;76041;50.924;3.932;2024-03-23T00:58:01;10.40;80.10
85614;DHT22;76041;50.924;3.932;2024-03-23T01:00:27;10.40;80.00
85614;DHT22;76041;50.924;3.932;2024-03-23T01:02:53;10.40;80.00
85614;DHT22;76041;50.924;3.932;2024-03-23T01:05:19;10.30;80.40
85614;DHT22;76041;50.924;3.932;2024-03-23T01:07:45;10.20;80.70
85614;DHT22;76041;50.924;3.932;2024-03-23T01:10:11;10.30;81.00
85614;DHT22;76041;50.924;3.932;2024-03-23T01:12:36;10.30;80.90
85614;DHT22;76041;50.924;3.932;2024-03-23T01:15:02;10.30;80.90
85614;DHT22;76041;50.924;3.932;2024-03-23T01:17:28;10.20;81.10
85614;DHT22;76041;50.924;3.932;2024-03-23T01:19:54;10.20;81.40
85614;DHT22;76041;50.924;3.932;2024-03-23T01:22:20;10.10;82.10
85614;DHT22;76041;50.924;3.932;2024-03-23T01:24:46;10.10;82.40
85614;DHT22;76041;50.924;3.932;2024-03-23T01:27:12;10.10;82.20
85614;DHT22;76041;50.924;3.932;2024-03-23T01:29:38;10.10;82.90
85614;DHT22;76041;50.924;3.932;2024-03-23T01:32:04;10.10;82.70
85614;DHT22;76041;50.924;3.932;2024-03-23T01:34:30;9.90;83.30
85614;DHT22;76041;50.924;3.932;2024-03-23T01:36:56;9.90;83.40
85614;DHT22;76041;50.924;3.932;2024-03-23T01:39:22;9.90;83.40
85614;DHT22;76041;50.924;3.932;2024-03-23T01:41:48;10.00;83.30
85614;DHT22;76041;50.924;3.932;2024-03-23T01:44:14;10.10;83.10
85614;DHT22;76041;50.924;3.932;2024-03-23T01:46:41;10.10;82.70
85614;DHT22;76041;50.924;3.932;2024-03-23T01:49:08;10.10;82.80
85614;DHT22;76041;50.924;3.932;2024-03-23T01:51:34;10.10;82.60
85614;DHT22;76041;50.924;3.932;2024-03-23T01:54:02;10.10;82.80
85614;DHT22;76041;50.924;3.932;2024-03-23T01:56:29;10.00;82.40
85614;DHT22;76041;50.924;3.932;2024-03-23T01:58:56;10.00;82.80
85614;DHT22;76041;50.924;3.932;2024-03-23T02:01:22;10.10;82.40
85614;DHT22;76041;50.924;3.932;2024-03-23T02:03:49;10.10;82.50
85614;DHT22;76041;50.924;3.932;2024-03-23T02:06:15;10.10;82.10
85614;DHT22;76041;50.924;3.932;2024-03-23T02:08:41;10.10;81.90
85614;DHT22;76041;50.924;3.932;2024-03-23T02:11:07;10.20;81.70
85614;DHT22;76041;50.924;3.932;2024-03-23T02:13:33;10.20;81.30
85614;DHT22;76041;50.924;3.932;2024-03-23T02:15:58;10.10;81.30
85614;DHT22;76041;50.924;3.932;2024-03-23T02:18:24;10.20;80.90
85614;DHT22;76041;50.924;3.932;2024-03-23T02:20:50;10.20;80.50
85614;DHT22;76041;50.924;3.932;2024-03-23T02:23:17;10.20;80.50
85614;DHT22;76041;50.924;3.932;2024-03-23T02:25:43;10.30;80.80
85614;DHT22;76041;50.924;3.932;2024-03-23T02:28:10;10.20;79.90
85614;DHT22;76041;50.924;3.932;2024-03-23T02:30:37;10.00;80.20
85614;DHT22;76041;50.924;3.932;2024-03-23T02:33:03;9.90;80.00
85614;DHT22;76041;50.924;3.932;2024-03-23T02:35:29;10.00;80.20
85614;DHT22;76041;50.924;3.932;2024-03-23T02:37:55;10.10;80.10
85614;DHT22;76041;50.924;3.932;2024-03-23T02:40:26;10.10;79.50
85614;DHT22;76041;50.924;3.932;2024-03-23T02:42:52;10.00;79.20
85614;DHT22;76041;50.924;3.932;2024-03-23T02:45:18;10.00;79.10
85614;DHT22;76041;50.924;3.932;2024-03-23T02:47:44;10.10;78.60
85614;DHT22;76041;50.924;3.932;2024-03-23T02:50:10;10.10;78.20
85614;DHT22;76041;50.924;3.932;2024-03-23T02:52:36;10.10;77.70
85614;DHT22;76041;50.924;3.932;2024-03-23T02:55:03;10.00;77.40
85614;DHT22;76041;50.924;3.932;2024-03-23T02:57:30;10.00;77.20
85614;DHT22;76041;50.924;3.932;2024-03-23T02:59:56;10.10;77.20
85614;DHT22;76041;50.924;3.932;2024-03-23T03:02:22;10.10;76.90
85614;DHT22;76041;50.924;3.932;2024-03-23T03:04:48;10.00;76.50
85614;DHT22;76041;50.924;3.932;2024-03-23T03:07:14;10.10;76.30
85614;DHT22;76041;50.924;3.932;2024-03-23T03:09:40;10.10;76.10
85614;DHT22;76041;50.924;3.932;2024-03-23T03:12:06;10.00;75.80
85614;DHT22;76041;50.924;3.932;2024-03-23T03:14:32;10.10;75.90
85614;DHT22;76041;50.924;3.932;2024-03-23T03:16:58;10.10;75.90
85614;DHT22;76041;50.924;3.932;2024-03-23T03:19:24;10.10;76.00
85614;DHT22;76041;50.924;3.932;2024-03-23T03:21:50;10.00;75.90
85614;DHT22;76041;50.924;3.932;2024-03-23T03:24:16;9.90;75.50
85614;DHT22;76041;50.924;3.932;2024-03-23T03:26:42;9.80;75.70
85614;DHT22;76041;50.924;3.932;2024-03-23T03:29:08;9.80;75.70
85614;DHT22;76041;50.924;3.932;2024-03-23T03:31:35;9.80;75.80
85614;DHT22;76041;50.924;3.932;2024-03-23T03:34:00;9.80;75.70
85614;DHT22;76041;50.924;3.932;2024-03-23T03:36:26;9.70;75.30
85614;DHT22;76041;50.924;3.932;2024-03-23T03:38:52;9.60;75.50
85614;DHT22;76041;50.924;3.932;2024-03-23T03:41:19;9.70;75.70
85614;DHT22;76041;50.924;3.932;2024-03-23T03:43:47;9.60;75.70
85614;DHT22;76041;50.924;3.932;2024-03-23T03:46:13;9.50;76.10
85614;DHT22;76041;50.924;3.932;2024-03-23T03:48:39;9.40;75.70
85614;DHT22;76041;50.924;3.932;2024-03-23T03:51:05;9.50;76.50
85614;DHT22;76041;50.924;3.932;2024-03-23T03:53:31;9.40;76.20
85614;DHT22;76041;50.924;3.932;2024-03-23T03:56:00;9.30;76.60
85614;DHT22;76041;50.924;3.932;2024-03-23T03:58:27;9.20;76.70
85614;DHT22;76041;50.924;3.932;2024-03-23T04:00:53;9.30;77.20
85614;DHT22;76041;50.924;3.932;2024-03-23T04:03:19;9.20;76.80
85614;DHT22;76041;50.924;3.932;2024-03-23T04:05:52;9.10;77.30
85614;DHT22;76041;50.924;3.932;2024-03-23T04:08:19;9.10;77.20
85614;DHT22;76041;50.924;3.932;2024-03-23T04:10:45;9.10;77.20
85614;DHT22;76041;50.924;3.932;2024-03-23T04:13:12;9.20;76.90
85614;DHT22;76041;50.924;3.932;2024-03-23T04:15:38;9.20;76.80
85614;DHT22;76041;50.924;3.932;2024-03-23T04:18:04;9.20;76.80
85614;DHT22;76041;50.924;3.932;2024-03-23T04:20:30;9.00;76.20
85614;DHT22;76041;50.924;3.932;2024-03-23T04:22:55;9.00;76.90
85614;DHT22;76041;50.924;3.932;2024-03-23T04:25:21;8.90;76.40
85614;DHT22;76041;50.924;3.932;2024-03-23T04:27:47;8.70;77.20
85614;DHT22;76041;50.924;3.932;2024-03-23T04:30:13;8.80;77.60
85614;DHT22;76041;50.924;3.932;2024-03-23T04:32:39;8.80;77.60
85614;DHT22;76041;50.924;3.932;2024-03-23T04:35:06;8.90;77.50
85614;DHT22;76041;50.924;3.932;2024-03-23T04:37:37;9.00;77.70
85614;DHT22;76041;50.924;3.932;2024-03-23T04:40:06;9.10;77.80
85614;DHT22;76041;50.924;3.932;2024-03-23T04:42:33;9.10;78.60
85614;DHT22;76041;50.924;3.932;2024-03-23T04:44:59;8.90;78.10
85614;DHT22;76041;50.924;3.932;2024-03-23T04:47:25;8.80;78.50
85614;DHT22;76041;50.924;3.932;2024-03-23T04:49:51;8.70;79.10
85614;DHT22;76041;50.924;3.932;2024-03-23T04:52:17;8.60;79.10
85614;DHT22;76041;50.924;3.932;2024-03-23T04:54:43;8.60;79.10
85614;DHT22;76041;50.924;3.932;2024-03-23T04:57:11;8.60;79.10
85614;DHT22;76041;50.924;3.932;2024-03-23T04:59:37;8.80;78.60
85614;DHT22;76041;50.924;3.932;2024-03-23T05:02:03;8.80;78.40
85614;DHT22;76041;50.924;3.932;2024-03-23T05:04:29;8.90;78.10
85614;DHT22;76041;50.924;3.932;2024-03-23T05:06:55;8.80;78.30
85614;DHT22;76041;50.924;3.932;2024-03-23T05:09:22;8.70;78.20
85614;DHT22;76041;50.924;3.932;2024-03-23T05:11:48;8.70;78.30
85614;DHT22;76041;50.924;3.932;2024-03-23T05:14:14;8.60;77.70
85614;DHT22;76041;50.924;3.932;2024-03-23T05:16:40;8.60;78.30
85614;DHT22;76041;50.924;3.932;2024-03-23T05:19:06;8.70;78.60
85614;DHT22;76041;50.924;3.932;2024-03-23T05:21:32;8.80;78.10
85614;DHT22;76041;50.924;3.932;2024-03-23T05:23:57;8.80;77.70
85614;DHT22;76041;50.924;3.932;2024-03-23T05:26:23;8.50;78.10
85614;DHT22;76041;50.924;3.932;2024-03-23T05:28:49;8.40;78.60
85614;DHT22;76041;50.924;3.932;2024-03-23T05:31:29;8.40;78.70
85614;DHT22;76041;50.924;3.932;2024-03-23T05:33:56;8.10;79.30
85614;DHT22;76041;50.924;3.932;2024-03-23T05:36:22;8.20;79.70
85614;DHT22;76041;50.924;3.932;2024-03-23T05:38:50;8.10;79.80
85614;DHT22;76041;50.924;3.932;2024-03-23T05:41:16;8.10;79.60
85614;DHT22;76041;50.924;3.932;2024-03-23T05:43:42;8.10;80.00
85614;DHT22;76041;50.924;3.932;2024-03-23T05:46:08;8.10;79.80
85614;DHT22;76041;50.924;3.932;2024-03-23T05:48:34;8.20;79.50
85614;DHT22;76041;50.924;3.932;2024-03-23T05:51:00;8.20;79.80
85614;DHT22;76041;50.924;3.932;2024-03-23T05:53:27;8.20;79.40
85614;DHT22;76041;50.924;3.932;2024-03-23T05:56:03;8.30;79.70
85614;DHT22;76041;50.924;3.932;2024-03-23T05:58:32;8.30;79.50
85614;DHT22;76041;50.924;3.932;2024-03-23T06:01:00;8.10;80.00
85614;DHT22;76041;50.924;3.932;2024-03-23T06:03:30;8.10;80.30
85614;DHT22;76041;50.924;3.932;2024-03-23T06:05:56;8.10;79.80
85614;DHT22;76041;50.924;3.932;2024-03-23T06:08:22;8.00;80.50
85614;DHT22;76041;50.924;3.932;2024-03-23T06:10:50;8.00;80.70
85614;DHT22;76041;50.924;3.932;2024-03-23T06:13:16;7.90;81.10
85614;DHT22;76041;50.924;3.932;2024-03-23T06:15:43;8.00;81.10
85614;DHT22;76041;50.924;3.932;2024-03-23T06:18:09;7.90;81.00
85614;DHT22;76041;50.924;3.932;2024-03-23T06:20:35;7.80;80.90
85614;DHT22;76041;50.924;3.932;2024-03-23T06:23:01;7.80;81.50
85614;DHT22;76041;50.924;3.932;2024-03-23T06:25:29;7.90;81.50
85614;DHT22;76041;50.924;3.932;2024-03-23T06:27:55;7.90;81.40
85614;DHT22;76041;50.924;3.932;2024-03-23T06:30:21;7.90;80.80
85614;DHT22;76041;50.924;3.932;2024-03-23T06:32:47;7.70;81.20
85614;DHT22;76041;50.924;3.932;2024-03-23T06:35:13;7.50;81.10
85614;DHT22;76041;50.924;3.932;2024-03-23T06:37:39;7.70;81.60
85614;DHT22;76041;50.924;3.932;2024-03-23T06:40:07;7.60;80.60
85614;DHT22;76041;50.924;3.932;2024-03-23T06:42:35;7.40;81.10
85614;DHT22;76041;50.924;3.932;2024-03-23T06:45:02;7.40;81.10
85614;DHT22;76041;50.924;3.932;2024-03-23T06:47:29;7.40;80.40
85614;DHT22;76041;50.924;3.932;2024-03-23T06:49:55;7.50;80.90
85614;DHT22;76041;50.924;3.932;2024-03-23T06:52:21;7.60;80.70
85614;DHT22;76041;50.924;3.932;2024-03-23T06:54:46;7.50;80.50
85614;DHT22;76041;50.924;3.932;2024-03-23T06:57:12;7.60;80.80
85614;DHT22;76041;50.924;3.932;2024-03-23T06:59:38;7.60;81.00
85614;DHT22;76041;50.924;3.932;2024-03-23T07:02:05;7.60;81.30
85614;DHT22;76041;50.924;3.932;2024-03-23T07:04:34;7.40;81.40
85614;DHT22;76041;50.924;3.932;2024-03-23T07:07:00;7.40;81.80
85614;DHT22;76041;50.924;3.932;2024-03-23T07:09:28;7.30;81.70
85614;DHT22;76041;50.924;3.932;2024-03-23T07:11:56;7.30;82.90
85614;DHT22;76041;50.924;3.932;2024-03-23T07:14:22;7.30;83.10
85614;DHT22;76041;50.924;3.932;2024-03-23T07:16:48;7.30;82.60
85614;DHT22;76041;50.924;3.932;2024-03-23T07:19:16;7.20;82.80
85614;DHT22;76041;50.924;3.932;2024-03-23T07:21:43;7.20;83.10
85614;DHT22;76041;50.924;3.932;2024-03-23T07:24:09;7.20;83.60
85614;DHT22;76041;50.924;3.932;2024-03-23T07:26:35;7.40;83.70
85614;DHT22;76041;50.924;3.932;2024-03-23T07:29:01;7.50;82.90
85614;DHT22;76041;50.924;3.932;2024-03-23T07:31:27;7.50;82.80
85614;DHT22;76041;50.924;3.932;2024-03-23T07:33:54;7.50;82.90
85614;DHT22;76041;50.924;3.932;2024-03-23T07:36:20;7.60;83.70
85614;DHT22;76041;50.924;3.932;2024-03-23T07:38:46;7.60;82.50
85614;DHT22;76041;50.924;3.932;2024-03-23T07:41:15;7.60;82.50
85614;DHT22;76041;50.924;3.932;2024-03-23T07:43:45;7.50;82.50
85614;DHT22;76041;50.924;3.932;2024-03-23T07:46:11;7.50;82.60
85614;DHT22;76041;50.924;3.932;2024-03-23T07:48:37;7.50;82.20
85614;DHT22;76041;50.924;3.932;2024-03-23T07:51:08;7.50;83.50
85614;DHT22;76041;50.924;3.932;2024-03-23T07:53:36;7.60;83.50
85614;DHT22;76041;50.924;3.932;2024-03-23T07:58:30;7.70;82.40
85614;DHT22;76041;50.924;3.932;2024-03-23T08:00:56;7.70;81.90
85614;DHT22;76041;50.924;3.932;2024-03-23T08:03:28;7.70;82.10
85614;DHT22;76041;50.924;3.932;2024-03-23T08:05:54;7.80;81.60
85614;DHT22;76041;50.924;3.932;2024-03-23T08:08:20;7.90;81.40
85614;DHT22;76041;50.924;3.932;2024-03-23T08:10:50;7.80;81.50
85614;DHT22;76041;50.924;3.932;2024-03-23T08:13:16;7.90;81.60
85614;DHT22;76041;50.924;3.932;2024-03-23T08:15:42;8.00;80.70
85614;DHT22;76041;50.924;3.932;2024-03-23T08:18:09;8.00;80.40
85614;DHT22;76041;50.924;3.932;2024-03-23T08:20:35;8.10;80.20
85614;DHT22;76041;50.924;3.932;2024-03-23T08:23:01;8.20;79.50
85614;DHT22;76041;50.924;3.932;2024-03-23T08:25:27;8.10;80.20
85614;DHT22;76041;50.924;3.932;2024-03-23T08:27:53;8.10;79.70
85614;DHT22;76041;50.924;3.932;2024-03-23T08:30:19;8.20;79.40
85614;DHT22;76041;50.924;3.932;2024-03-23T08:32:44;8.20;79.40
85614;DHT22;76041;50.924;3.932;2024-03-23T08:35:11;8.20;79.10
85614;DHT22;76041;50.924;3.932;2024-03-23T08:37:37;8.30;79.10
85614;DHT22;76041;50.924;3.932;2024-03-23T08:40:03;8.20;78.80
85614;DHT22;76041;50.924;3.932;2024-03-23T08:42:30;8.20;79.10
85614;DHT22;76041;50.924;3.932;2024-03-23T08:44:56;8.30;79.70
85614;DHT22;76041;50.924;3.932;2024-03-23T08:47:22;8.40;79.30
85614;DHT22;76041;50.924;3.932;2024-03-23T08:49:48;8.40;78.20
85614;DHT22;76041;50.924;3.932;2024-03-23T08:52:14;8.50;78.20
85614;DHT22;76041;50.924;3.932;2024-03-23T08:54:39;8.40;78.00
85614;DHT22;76041;50.924;3.932;2024-03-23T08:57:05;8.40;77.80
85614;DHT22;76041;50.924;3.932;2024-03-23T08:59:32;8.50;78.30
85614;DHT22;76041;50.924;3.932;2024-03-23T09:01:58;8.50;77.10
85614;DHT22;76041;50.924;3.932;2024-03-23T09:04:24;8.40;76.80
85614;DHT22;76041;50.924;3.932;2024-03-23T09:06:50;8.40;76.80
85614;DHT22;76041;50.924;3.932;2024-03-23T09:09:16;8.50;77.50
85614;DHT22;76041;50.924;3.932;2024-03-23T09:11:42;8.70;76.10
85614;DHT22;76041;50.924;3.932;2024-03-23T09:14:08;8.60;75.40
85614;DHT22;76041;50.924;3.932;2024-03-23T09:16:34;8.50;75.20
85614;DHT22;76041;50.924;3.932;2024-03-23T09:19:00;8.50;74.90
85614;DHT22;76041;50.924;3.932;2024-03-23T09:21:26;8.60;76.00
85614;DHT22;76041;50.924;3.932;2024-03-23T09:23:52;8.70;75.40
85614;DHT22;76041;50.924;3.932;2024-03-23T09:26:18;8.80;74.20
85614;DHT22;76041;50.924;3.932;2024-03-23T09:28:44;8.80;74.00
85614;DHT22;76041;50.924;3.932;2024-03-23T09:31:10;8.90;74.40
85614;DHT22;76041;50.924;3.932;2024-03-23T09:33:39;8.80;72.20
85614;DHT22;76041;50.924;3.932;2024-03-23T09:36:06;8.80;72.20
85614;DHT22;76041;50.924;3.932;2024-03-23T09:38:33;8.80;72.90
85614;DHT22;76041;50.924;3.932;2024-03-23T09:40:59;8.80;72.10
85614;DHT22;76041;50.924;3.932;2024-03-23T09:43:25;8.90;73.00
85614;DHT22;76041;50.924;3.932;2024-03-23T09:45:52;8.80;72.20
85614;DHT22;76041;50.924;3.932;2024-03-23T09:48:18;8.80;72.70
85614;DHT22;76041;50.924;3.932;2024-03-23T09:50:45;8.80;72.40
85614;DHT22;76041;50.924;3.932;2024-03-23T09:53:13;8.80;73.10
85614;DHT22;76041;50.924;3.932;2024-03-23T09:55:43;8.80;73.20
85614;DHT22;76041;50.924;3.932;2024-03-23T09:58:13;8.80;73.90
85614;DHT22;76041;50.924;3.932;2024-03-23T10:00:39;8.90;73.50
85614;DHT22;76041;50.924;3.932;2024-03-23T10:03:05;9.10;74.00
85614;DHT22;76041;50.924;3.932;2024-03-23T10:05:32;9.30;71.40
85614;DHT22;76041;50.924;3.932;2024-03-23T10:10:39;9.10;71.60
85614;DHT22;76041;50.924;3.932;2024-03-23T10:13:05;9.10;70.80
85614;DHT22;76041;50.924;3.932;2024-03-23T10:15:34;9.20;70.40
85614;DHT22;76041;50.924;3.932;2024-03-23T10:18:18;9.10;68.00
85614;DHT22;76041;50.924;3.932;2024-03-23T10:20:50;9.10;71.80
85614;DHT22;76041;50.924;3.932;2024-03-23T10:23:16;9.20;69.00
85614;DHT22;76041;50.924;3.932;2024-03-23T10:25:43;9.30;69.00
85614;DHT22;76041;50.924;3.932;2024-03-23T10:28:08;9.50;69.10
85614;DHT22;76041;50.924;3.932;2024-03-23T10:30:37;9.50;68.50
85614;DHT22;76041;50.924;3.932;2024-03-23T10:33:12;9.60;69.50
85614;DHT22;76041;50.924;3.932;2024-03-23T10:35:39;9.70;69.10
85614;DHT22;76041;50.924;3.932;2024-03-23T10:38:06;9.80;69.00
85614;DHT22;76041;50.924;3.932;2024-03-23T10:40:35;10.10;69.00
85614;DHT22;76041;50.924;3.932;2024-03-23T10:43:03;10.30;66.30
85614;DHT22;76041;50.924;3.932;2024-03-23T10:45:29;10.30;66.80
85614;DHT22;76041;50.924;3.932;2024-03-23T10:47:55;10.40;64.90
85614;DHT22;76041;50.924;3.932;2024-03-23T10:50:22;10.40;65.50
85614;DHT22;76041;50.924;3.932;2024-03-23T10:52:49;10.40;64.80
85614;DHT22;76041;50.924;3.932;2024-03-23T10:55:19;10.30;64.40
85614;DHT22;76041;50.924;3.932;2024-03-23T10:57:52;10.30;64.60
85614;DHT22;76041;50.924;3.932;2024-03-23T11:00:19;10.20;65.10
85614;DHT22;76041;50.924;3.932;2024-03-23T11:02:47;10.30;66.00
85614;DHT22;76041;50.924;3.932;2024-03-23T11:07:52;10.90;63.80
85614;DHT22;76041;50.924;3.932;2024-03-23T11:10:30;11.10;63.40
85614;DHT22;76041;50.924;3.932;2024-03-23T11:12:57;11.30;62.60
85614;DHT22;76041;50.924;3.932;2024-03-23T11:15:23;11.10;60.30
85614;DHT22;76041;50.924;3.932;2024-03-23T11:18:06;11.30;62.30
85614;DHT22;76041;50.924;3.932;2024-03-23T11:20:38;11.40;60.80
85614;DHT22;76041;50.924;3.932;2024-03-23T11:23:04;11.40;61.60
85614;DHT22;76041;50.924;3.932;2024-03-23T11:25:30;11.40;61.70
85614;DHT22;76041;50.924;3.932;2024-03-23T11:27:58;11.10;63.30
85614;DHT22;76041;50.924;3.932;2024-03-23T11:30:35;11.20;64.00
85614;DHT22;76041;50.924;3.932;2024-03-23T11:33:02;11.40;62.90
85614;DHT22;76041;50.924;3.932;2024-03-23T11:35:38;11.30;61.40
85614;DHT22;76041;50.924;3.932;2024-03-23T11:40:49;11.50;60.70
85614;DHT22;76041;50.924;3.932;2024-03-23T11:43:19;11.50;62.60
85614;DHT22;76041;50.924;3.932;2024-03-23T11:45:46;11.30;61.00
85614;DHT22;76041;50.924;3.932;2024-03-23T11:48:14;10.90;61.60
85614;DHT22;76041;50.924;3.932;2024-03-23T11:50:42;10.50;62.10
85614;DHT22;76041;50.924;3.932;2024-03-23T11:53:15;10.10;62.80
85614;DHT22;76041;50.924;3.932;2024-03-23T11:58:12;9.90;63.40
85614;DHT22;76041;50.924;3.932;2024-03-23T12:00:38;9.80;64.60
85614;DHT22;76041;50.924;3.932;2024-03-23T12:03:05;10.00;65.10
85614;DHT22;76041;50.924;3.932;2024-03-23T12:05:32;10.50;63.50
85614;DHT22;76041;50.924;3.932;2024-03-23T12:08:25;10.60;63.20
85614;DHT22;76041;50.924;3.932;2024-03-23T12:11:06;11.20;63.10
85614;DHT22;76041;50.924;3.932;2024-03-23T12:13:32;11.70;63.20
85614;DHT22;76041;50.924;3.932;2024-03-23T12:16:17;11.80;61.60
85614;DHT22;76041;50.924;3.932;2024-03-23T12:18:44;11.60;60.90
85614;DHT22;76041;50.924;3.932;2024-03-23T12:21:10;11.30;60.70
85614;DHT22;76041;50.924;3.932;2024-03-23T12:23:39;11.20;60.10
85614;DHT22;76041;50.924;3.932;2024-03-23T12:26:05;11.40;60.80
85614;DHT22;76041;50.924;3.932;2024-03-23T12:28:31;11.70;59.90
85614;DHT22;76041;50.924;3.932;2024-03-23T12:30:57;11.80;58.10
85614;DHT22;76041;50.924;3.932;2024-03-23T12:33:23;12.10;57.70
85614;DHT22;76041;50.924;3.932;2024-03-23T12:35:50;12.00;58.20
85614;DHT22;76041;50.924;3.932;2024-03-23T12:38:16;11.80;58.40
85614;DHT22;76041;50.924;3.932;2024-03-23T12:40:50;11.80;59.20
85614;DHT22;76041;50.924;3.932;2024-03-23T12:43:16;11.60;58.70
85614;DHT22;76041;50.924;3.932;2024-03-23T12:45:48;11.60;58.40
85614;DHT22;76041;50.924;3.932;2024-03-23T12:48:15;11.50;59.10
85614;DHT22;76041;50.924;3.932;2024-03-23T12:50:40;11.50;59.40
85614;DHT22;76041;50.924;3.932;2024-03-23T12:53:06;11.20;59.90
85614;DHT22;76041;50.924;3.932;2024-03-23T12:55:35;11.20;60.90
85614;DHT22;76041;50.924;3.932;2024-03-23T12:58:01;11.60;62.20
85614;DHT22;76041;50.924;3.932;2024-03-23T13:00:27;12.30;61.60
85614;DHT22;76041;50.924;3.932;2024-03-23T13:02:53;12.70;59.40
85614;DHT22;76041;50.924;3.932;2024-03-23T13:05:18;13.00;58.00
85614;DHT22;76041;50.924;3.932;2024-03-23T13:07:44;13.30;59.00
85614;DHT22;76041;50.924;3.932;2024-03-23T13:10:10;13.50;57.80
85614;DHT22;76041;50.924;3.932;2024-03-23T13:12:36;13.70;57.70
85614;DHT22;76041;50.924;3.932;2024-03-23T13:15:02;13.80;56.00
85614;DHT22;76041;50.924;3.932;2024-03-23T13:17:28;13.30;55.20
85614;DHT22;76041;50.924;3.932;2024-03-23T13:19:54;13.20;56.20
85614;DHT22;76041;50.924;3.932;2024-03-23T13:22:23;13.20;54.30
85614;DHT22;76041;50.924;3.932;2024-03-23T13:24:49;12.80;56.70
85614;DHT22;76041;50.924;3.932;2024-03-23T13:27:16;13.40;59.10
85614;DHT22;76041;50.924;3.932;2024-03-23T13:29:42;13.90;57.50
85614;DHT22;76041;50.924;3.932;2024-03-23T13:32:08;14.20;55.80
85614;DHT22;76041;50.924;3.932;2024-03-23T13:34:34;14.10;55.80
85614;DHT22;76041;50.924;3.932;2024-03-23T13:37:01;13.90;55.60
85614;DHT22;76041;50.924;3.932;2024-03-23T13:39:27;13.80;56.70
85614;DHT22;76041;50.924;3.932;2024-03-23T13:41:53;13.60;57.20
85614;DHT22;76041;50.924;3.932;2024-03-23T13:44:22;13.10;57.90
85614;DHT22;76041;50.924;3.932;2024-03-23T13:46:48;13.10;56.50
85614;DHT22;76041;50.924;3.932;2024-03-23T13:49:28;13.00;56.40
85614;DHT22;76041;50.924;3.932;2024-03-23T13:51:55;12.80;56.30
85614;DHT22;76041;50.924;3.932;2024-03-23T13:54:23;12.30;56.60
85614;DHT22;76041;50.924;3.932;2024-03-23T13:56:50;12.30;56.50
85614;DHT22;76041;50.924;3.932;2024-03-23T13:59:17;11.80;56.70
85614;DHT22;76041;50.924;3.932;2024-03-23T14:01:44;11.60;57.60
85614;DHT22;76041;50.924;3.932;2024-03-23T14:04:12;11.60;58.00
85614;DHT22;76041;50.924;3.932;2024-03-23T14:06:38;11.70;57.60
85614;DHT22;76041;50.924;3.932;2024-03-23T14:09:04;11.80;57.40
85614;DHT22;76041;50.924;3.932;2024-03-23T14:11:30;11.70;57.60
85614;DHT22;76041;50.924;3.932;2024-03-23T14:13:56;11.50;58.70
85614;DHT22;76041;50.924;3.932;2024-03-23T14:16:22;11.50;58.60
85614;DHT22;76041;50.924;3.932;2024-03-23T14:18:48;11.10;60.00
85614;DHT22;76041;50.924;3.932;2024-03-23T14:21:14;10.70;60.40
85614;DHT22;76041;50.924;3.932;2024-03-23T14:23:40;10.60;61.60
85614;DHT22;76041;50.924;3.932;2024-03-23T14:26:09;10.60;60.60
85614;DHT22;76041;50.924;3.932;2024-03-23T14:28:34;10.70;60.70
85614;DHT22;76041;50.924;3.932;2024-03-23T14:31:00;10.60;61.70
85614;DHT22;76041;50.924;3.932;2024-03-23T14:33:26;10.70;62.80
85614;DHT22;76041;50.924;3.932;2024-03-23T14:35:53;10.70;59.80
85614;DHT22;76041;50.924;3.932;2024-03-23T14:38:20;10.90;60.70
85614;DHT22;76041;50.924;3.932;2024-03-23T14:40:46;11.20;60.60
85614;DHT22;76041;50.924;3.932;2024-03-23T14:43:12;11.60;60.10
85614;DHT22;76041;50.924;3.932;2024-03-23T14:46:11;11.80;58.90
85614;DHT22;76041;50.924;3.932;2024-03-23T14:48:38;11.80;57.90
85614;DHT22;76041;50.924;3.932;2024-03-23T14:51:04;11.90;57.70
85614;DHT22;76041;50.924;3.932;2024-03-23T14:53:35;12.10;56.40
85614;DHT22;76041;50.924;3.932;2024-03-23T14:56:02;12.20;56.50
85614;DHT22;76041;50.924;3.932;2024-03-23T14:58:29;12.40;56.80
85614;DHT22;76041;50.924;3.932;2024-03-23T15:01:06;12.60;57.10
85614;DHT22;76041;50.924;3.932;2024-03-23T15:03:35;12.70;57.60
85614;DHT22;76041;50.924;3.932;2024-03-23T15:06:01;12.30;57.30
85614;DHT22;76041;50.924;3.932;2024-03-23T15:08:28;11.90;57.90
85614;DHT22;76041;50.924;3.932;2024-03-23T15:10:55;11.90;57.40
85614;DHT22;76041;50.924;3.932;2024-03-23T15:13:24;11.80;57.10
85614;DHT22;76041;50.924;3.932;2024-03-23T15:15:50;11.60;56.60
85614;DHT22;76041;50.924;3.932;2024-03-23T15:18:18;11.70;56.40
85614;DHT22;76041;50.924;3.932;2024-03-23T15:20:56;11.70;57.20
85614;DHT22;76041;50.924;3.932;2024-03-23T15:23:22;11.90;58.30
85614;DHT22;76041;50.924;3.932;2024-03-23T15:26:01;12.00;56.40
85614;DHT22;76041;50.924;3.932;2024-03-23T15:28:27;12.00;57.40
85614;DHT22;76041;50.924;3.932;2024-03-23T15:31:04;12.10;55.10
85614;DHT22;76041;50.924;3.932;2024-03-23T15:33:30;12.10;55.40
85614;DHT22;76041;50.924;3.932;2024-03-23T15:36:02;12.20;55.80
85614;DHT22;76041;50.924;3.932;2024-03-23T15:38:29;12.30;55.90
85614;DHT22;76041;50.924;3.932;2024-03-23T15:40:56;12.10;55.30
85614;DHT22;76041;50.924;3.932;2024-03-23T15:43:22;12.10;55.90
85614;DHT22;76041;50.924;3.932;2024-03-23T15:46:01;12.00;56.80
85614;DHT22;76041;50.924;3.932;2024-03-23T15:48:28;11.70;56.70
85614;DHT22;76041;50.924;3.932;2024-03-23T15:50:56;11.90;57.40
85614;DHT22;76041;50.924;3.932;2024-03-23T15:53:23;12.00;56.70
85614;DHT22;76041;50.924;3.932;2024-03-23T15:56:03;12.20;56.00
85614;DHT22;76041;50.924;3.932;2024-03-23T15:58:30;12.40;55.50
85614;DHT22;76041;50.924;3.932;2024-03-23T16:00:59;12.50;55.40
85614;DHT22;76041;50.924;3.932;2024-03-23T16:03:26;12.50;55.40
85614;DHT22;76041;50.924;3.932;2024-03-23T16:05:54;12.70;56.10
85614;DHT22;76041;50.924;3.932;2024-03-23T16:08:20;12.50;54.10
85614;DHT22;76041;50.924;3.932;2024-03-23T16:10:46;12.00;54.90
85614;DHT22;76041;50.924;3.932;2024-03-23T16:13:13;11.90;55.10
85614;DHT22;76041;50.924;3.932;2024-03-23T16:15:39;11.80;56.10
85614;DHT22;76041;50.924;3.932;2024-03-23T16:18:05;11.80;56.80
85614;DHT22;76041;50.924;3.932;2024-03-23T16:20:31;11.60;56.60
85614;DHT22;76041;50.924;3.932;2024-03-23T16:23:01;11.20;56.60
85614;DHT22;76041;50.924;3.932;2024-03-23T16:25:27;11.20;56.40
85614;DHT22;76041;50.924;3.932;2024-03-23T16:27:53;11.20;56.90
85614;DHT22;76041;50.924;3.932;2024-03-23T16:30:19;11.00;57.10
85614;DHT22;76041;50.924;3.932;2024-03-23T16:32:46;10.90;58.10
85614;DHT22;76041;50.924;3.932;2024-03-23T16:35:13;11.00;58.30
85614;DHT22;76041;50.924;3.932;2024-03-23T16:37:40;11.20;58.00
85614;DHT22;76041;50.924;3.932;2024-03-23T16:40:06;11.50;58.20
85614;DHT22;76041;50.924;3.932;2024-03-23T16:42:35;11.50;57.60
85614;DHT22;76041;50.924;3.932;2024-03-23T16:45:02;11.50;57.60